createdAt,value
2018-04-12T00:00:16.392Z,3.00
2018-04-12T00:02:43.970Z,2.80
2018-04-12T00:05:11.480Z,3.30
2018-04-12T00:07:39.033Z,2.93
2018-04-12T00:10:07.294Z,3.23
2018-04-12T00:12:34.934Z,3.50
2018-04-12T00:15:02.543Z,2.90
2018-04-12T00:17:30.046Z,2.67
2018-04-12T00:19:57.580Z,3.37
2018-04-12T00:22:25.092Z,3.20
2018-04-12T00:24:52.793Z,2.97
2018-04-12T00:27:20.534Z,3.20
2018-04-12T00:29:48.995Z,2.90
2018-04-12T00:32:17.417Z,2.93
2018-04-12T00:34:45.493Z,3.40
2018-04-12T00:37:13.223Z,3.30
2018-04-12T00:39:40.928Z,3.33
2018-04-12T00:42:08.661Z,3.17
2018-04-12T00:44:36.384Z,2.80
2018-04-12T00:47:04.031Z,3.37
2018-04-12T00:49:31.716Z,3.23
2018-04-12T00:51:59.370Z,3.47
2018-04-12T00:54:27.976Z,3.07
2018-04-12T00:56:55.694Z,3.30
2018-04-12T00:59:23.288Z,3.47
2018-04-12T01:01:50.992Z,3.20
2018-04-12T01:04:18.647Z,3.50
2018-04-12T01:06:46.311Z,3.10
2018-04-12T01:09:14.005Z,3.37
2018-04-12T01:11:41.713Z,3.27
2018-04-12T01:14:09.398Z,2.77
2018-04-12T01:16:37.156Z,3.43
2018-04-12T01:19:04.793Z,3.70
2018-04-12T01:21:32.421Z,3.00
2018-04-12T01:24:00.039Z,3.27
2018-04-12T01:26:29.473Z,3.00
2018-04-12T01:28:57.169Z,3.87
2018-04-12T01:31:24.871Z,2.90
2018-04-12T01:33:52.533Z,3.27
2018-04-12T01:36:20.149Z,3.37
2018-04-12T01:38:47.840Z,3.03
2018-04-12T01:41:17.239Z,3.47
2018-04-12T01:43:44.991Z,2.90
2018-04-12T01:46:12.709Z,2.97
2018-04-12T01:48:40.456Z,3.40
2018-04-12T01:51:08.920Z,3.00
2018-04-12T01:53:36.682Z,3.13
2018-04-12T01:56:05.890Z,3.20
2018-04-12T01:58:34.521Z,3.27
2018-04-12T02:01:02.150Z,3.50
2018-04-12T02:03:29.842Z,3.53
2018-04-12T02:05:57.636Z,3.50
2018-04-12T02:08:25.328Z,3.00
2018-04-12T02:10:54.450Z,3.00
2018-04-12T02:13:22.933Z,3.10
2018-04-12T02:15:50.487Z,3.10
2018-04-12T02:18:18.239Z,2.77
2018-04-12T02:20:46.586Z,3.03
2018-04-12T02:23:15.804Z,3.37
2018-04-12T02:25:43.561Z,2.90
2018-04-12T02:28:11.236Z,3.20
2018-04-12T02:30:39.527Z,3.80
2018-04-12T02:33:08.562Z,3.17
2018-04-12T02:35:36.217Z,3.30
2018-04-12T02:38:03.973Z,3.40
2018-04-12T02:40:33.691Z,3.30
2018-04-12T02:43:01.995Z,3.03
2018-04-12T02:45:30.456Z,3.30
2018-04-12T02:47:58.147Z,3.50
2018-04-12T02:50:26.656Z,3.63
2018-04-12T02:52:54.438Z,3.77
2018-04-12T02:55:22.132Z,3.33
2018-04-12T02:57:49.783Z,3.10
2018-04-12T03:00:17.452Z,3.87
2018-04-12T03:02:45.050Z,3.43
2018-04-12T03:05:12.710Z,3.20
2018-04-12T03:07:40.466Z,4.07
2018-04-12T03:10:08.934Z,3.47
2018-04-12T03:12:36.644Z,3.33
2018-04-12T03:15:04.420Z,3.30
2018-04-12T03:17:33.351Z,4.07
2018-04-12T03:20:01.185Z,3.60
2018-04-12T03:22:28.884Z,3.83
2018-04-12T03:24:57.430Z,4.00
2018-04-12T03:27:59.212Z,3.60
2018-04-12T03:30:26.895Z,3.40
2018-04-12T03:32:54.585Z,3.80
2018-04-12T03:35:22.992Z,3.27
2018-04-12T03:37:50.685Z,3.77
2018-04-12T03:40:18.329Z,3.43
2018-04-12T03:42:46.059Z,3.70
2018-04-12T03:45:13.804Z,3.40
2018-04-12T03:47:42.593Z,3.07
2018-04-12T03:50:11.023Z,3.20
2018-04-12T03:52:38.686Z,3.13
2018-04-12T03:55:06.485Z,3.30
2018-04-12T03:57:34.205Z,3.20
2018-04-12T04:00:02.009Z,3.43
2018-04-12T04:02:29.894Z,2.90
2018-04-12T04:04:57.535Z,3.17
2018-04-12T04:07:26.024Z,2.97
2018-04-12T04:09:54.610Z,3.27
2018-04-12T04:12:22.569Z,3.70
2018-04-12T04:18:05.082Z,3.40
2018-04-12T04:20:44.599Z,3.50
2018-04-12T04:23:14.296Z,3.63
2018-04-12T04:25:41.964Z,3.53
2018-04-12T04:28:09.753Z,3.67
2018-04-12T04:30:37.475Z,4.33
2018-04-12T04:33:05.114Z,4.33
2018-04-12T04:35:33.391Z,4.73
2018-04-12T04:38:01.059Z,4.90
2018-04-12T04:40:29.795Z,4.17
2018-04-12T04:42:57.526Z,3.43
2018-04-12T04:45:26.004Z,3.97
2018-04-12T04:47:54.405Z,4.00
2018-04-12T04:50:22.167Z,4.37
2018-04-12T04:52:49.785Z,4.30
2018-04-12T04:55:17.522Z,3.97
2018-04-12T04:57:45.221Z,2.90
2018-04-12T05:00:13.128Z,3.60
2018-04-12T05:02:40.870Z,4.13
2018-04-12T05:05:10.199Z,4.03
2018-04-12T05:07:37.941Z,3.40
2018-04-12T05:10:05.711Z,4.00
2018-04-12T05:12:34.289Z,4.10
2018-04-12T05:15:02.091Z,4.03
2018-04-12T05:17:29.935Z,3.93
2018-04-12T05:19:58.503Z,4.30
2018-04-12T05:22:27.393Z,4.13
2018-04-12T05:24:55.189Z,3.77
2018-04-12T05:27:23.641Z,3.63
2018-04-12T05:29:51.304Z,3.90
2018-04-12T05:32:19.015Z,4.10
2018-04-12T05:34:47.525Z,3.93
2018-04-12T05:37:16.487Z,4.23
2018-04-12T05:39:44.280Z,3.97
2018-04-12T05:42:13.450Z,3.90
2018-04-12T05:44:41.177Z,3.93
2018-04-12T05:47:08.808Z,4.10
2018-04-12T05:49:37.411Z,4.20
2018-04-12T05:52:05.265Z,3.90
2018-04-12T05:54:33.198Z,4.43
2018-04-12T05:57:00.953Z,4.00
2018-04-12T05:59:29.691Z,4.03
2018-04-12T06:01:58.294Z,4.10
2018-04-12T06:04:30.490Z,3.50
2018-04-12T06:06:58.334Z,4.13
2018-04-12T06:09:26.099Z,3.73
2018-04-12T06:11:55.029Z,4.20
2018-04-12T06:14:22.828Z,4.03
2018-04-12T06:16:50.459Z,3.80
2018-04-12T06:19:18.223Z,3.90
2018-04-12T06:21:46.449Z,3.47
2018-04-12T06:24:14.188Z,3.50
2018-04-12T06:26:41.906Z,3.87
2018-04-12T06:29:09.564Z,3.50
2018-04-12T06:31:37.956Z,4.40
2018-04-12T06:34:05.683Z,3.83
2018-04-12T06:36:36.139Z,3.33
2018-04-12T06:39:04.017Z,3.90
2018-04-12T06:41:32.535Z,4.00
2018-04-12T06:44:01.061Z,3.73
2018-04-12T06:46:28.718Z,4.37
2018-04-12T06:48:56.464Z,3.40
2018-04-12T06:51:24.320Z,4.10
2018-04-12T06:53:53.825Z,4.00
2018-04-12T06:56:21.616Z,3.13
2018-04-12T06:58:49.324Z,2.53
2018-04-12T07:01:17.870Z,3.50
2018-04-12T07:03:45.557Z,3.80
2018-04-12T07:06:13.539Z,3.70
2018-04-12T07:08:41.260Z,3.60
2018-04-12T07:11:08.998Z,3.47
2018-04-12T07:13:36.678Z,3.33
2018-04-12T07:16:04.293Z,3.00
2018-04-12T07:18:32.713Z,3.60
2018-04-12T07:21:01.150Z,3.60
2018-04-12T07:23:28.801Z,4.00
2018-04-12T07:25:57.201Z,3.23
2018-04-12T07:28:25.503Z,3.60
2018-04-12T07:30:53.142Z,2.97
2018-04-12T07:33:21.694Z,3.57
2018-04-12T07:35:49.405Z,3.97
2018-04-12T07:38:17.260Z,3.73
2018-04-12T07:40:44.988Z,3.80
2018-04-12T07:43:12.922Z,4.10
2018-04-12T07:45:42.056Z,3.07
2018-04-12T07:48:09.906Z,3.00
2018-04-12T07:50:40.099Z,3.57
2018-04-12T07:53:07.893Z,3.30
2018-04-12T07:55:35.569Z,3.23
2018-04-12T07:58:03.509Z,3.50
2018-04-12T08:00:31.440Z,3.63
2018-04-12T08:02:59.952Z,3.93
2018-04-12T08:05:27.693Z,3.57
2018-04-12T08:07:56.195Z,3.50
2018-04-12T08:10:24.145Z,3.50
2018-04-12T08:12:52.071Z,3.60
2018-04-12T08:15:20.829Z,3.40
2018-04-12T08:17:48.641Z,3.83
2018-04-12T08:20:17.376Z,3.80
2018-04-12T08:22:47.330Z,3.80
2018-04-12T08:25:16.265Z,3.70
2018-04-12T08:27:44.061Z,3.67
2018-04-12T08:30:11.831Z,3.50
2018-04-12T08:32:40.954Z,4.07
2018-04-12T08:35:08.727Z,4.30
2018-04-12T08:37:37.285Z,4.30
2018-04-12T08:40:05.103Z,4.40
2018-04-12T08:42:32.896Z,4.13
2018-04-12T08:45:00.586Z,4.57
2018-04-12T08:47:28.232Z,4.60
2018-04-12T08:49:55.929Z,4.20
2018-04-12T08:52:25.867Z,3.70
2018-04-12T08:54:53.519Z,4.07
2018-04-12T08:57:22.112Z,3.67
2018-04-12T08:59:50.092Z,3.87
2018-04-12T09:02:18.844Z,3.93
2018-04-12T09:04:46.736Z,3.80
2018-04-12T09:07:14.624Z,3.53
2018-04-12T09:09:42.388Z,3.67
2018-04-12T09:12:10.132Z,3.60
2018-04-12T09:14:37.962Z,3.13
2018-04-12T09:17:05.825Z,3.70
2018-04-12T09:19:33.616Z,3.40
2018-04-12T09:22:01.367Z,3.40
2018-04-12T09:24:29.045Z,3.87
2018-04-12T09:26:56.848Z,3.33
2018-04-12T09:29:24.488Z,3.93
2018-04-12T09:31:52.917Z,3.33
2018-04-12T09:34:20.643Z,3.47
2018-04-12T09:36:48.347Z,3.63
2018-04-12T09:39:16.120Z,3.10
2018-04-12T09:41:44.645Z,3.53
2018-04-12T09:44:12.521Z,3.40
2018-04-12T09:46:40.953Z,3.40
2018-04-12T09:49:08.654Z,3.20
2018-04-12T09:51:36.399Z,3.50
2018-04-12T09:54:04.287Z,3.30
2018-04-12T09:56:31.955Z,3.40
2018-04-12T09:58:59.602Z,3.33
2018-04-12T10:01:27.401Z,3.17
2018-04-12T10:03:55.979Z,3.10
2018-04-12T10:06:23.639Z,3.20
2018-04-12T10:08:56.873Z,3.00
2018-04-12T10:11:24.398Z,3.03
2018-04-12T10:13:51.943Z,3.30
2018-04-12T10:16:19.462Z,3.57
2018-04-12T10:18:47.008Z,3.63
2018-04-12T10:21:14.514Z,3.60
2018-04-12T10:23:42.019Z,3.20
2018-04-12T10:26:09.555Z,3.10
2018-04-12T10:28:37.064Z,3.43
2018-04-12T10:31:04.607Z,3.57
2018-04-12T10:33:33.207Z,3.77
2018-04-12T10:36:00.759Z,3.63
2018-04-12T10:38:28.281Z,4.03
2018-04-12T10:40:55.819Z,4.07
2018-04-12T10:43:24.116Z,4.40
2018-04-12T10:45:51.659Z,3.80
2018-04-12T10:48:19.181Z,4.10
2018-04-12T10:50:46.734Z,4.77
2018-04-12T10:53:14.237Z,4.80
2018-04-12T10:55:41.742Z,4.70
2018-04-12T10:58:09.288Z,4.43
2018-04-12T11:00:36.832Z,5.33
2018-04-12T11:03:04.380Z,4.80
2018-04-12T11:05:31.891Z,4.60
2018-04-12T11:07:59.439Z,5.10
2018-04-12T11:10:26.952Z,4.67
2018-04-12T11:12:54.632Z,5.27
2018-04-12T11:15:22.159Z,5.00
2018-04-12T11:17:49.761Z,4.63
2018-04-12T11:20:17.262Z,5.00
2018-04-12T11:22:44.895Z,4.87
2018-04-12T11:25:12.451Z,4.53
2018-04-12T11:27:39.969Z,4.17
2018-04-12T11:30:07.588Z,5.00
2018-04-12T11:32:35.092Z,4.57
2018-04-12T11:35:02.700Z,4.83
2018-04-12T11:37:30.283Z,4.90
2018-04-12T11:39:57.892Z,4.53
2018-04-12T11:42:25.418Z,3.70
2018-04-12T11:44:52.989Z,4.33
2018-04-12T11:47:20.515Z,3.97
2018-04-12T11:49:48.099Z,4.03
2018-04-12T11:52:16.361Z,3.97
2018-04-12T11:54:43.947Z,4.30
2018-04-12T11:57:12.046Z,4.50
2018-04-12T11:59:39.620Z,4.20
2018-04-12T12:02:07.141Z,4.27
2018-04-12T12:04:34.744Z,4.83
2018-04-12T12:07:02.262Z,4.00
2018-04-12T12:09:29.773Z,4.27
2018-04-12T12:11:57.321Z,4.40
2018-04-12T12:14:24.827Z,4.07
2018-04-12T12:16:53.146Z,4.30
2018-04-12T12:19:21.439Z,4.17
2018-04-12T12:21:49.028Z,4.63
2018-04-12T12:24:16.550Z,4.13
2018-04-12T12:26:44.104Z,4.27
2018-04-12T12:29:11.614Z,3.63
2018-04-12T12:31:39.163Z,4.63
2018-04-12T12:34:06.708Z,5.00
2018-04-12T12:36:34.225Z,4.27
2018-04-12T12:39:01.763Z,3.97
2018-04-12T12:41:29.277Z,4.37
2018-04-12T12:43:56.828Z,4.20
2018-04-12T12:46:24.358Z,4.23
2018-04-12T12:48:51.971Z,4.33
2018-04-12T12:51:19.467Z,3.73
2018-04-12T12:53:47.023Z,4.17
2018-04-12T12:56:15.106Z,4.13
2018-04-12T12:58:42.668Z,4.33
2018-04-12T13:01:10.174Z,3.87
2018-04-12T13:03:37.739Z,4.40
2018-04-12T13:06:05.254Z,3.30
2018-04-12T13:08:32.799Z,4.27
2018-04-12T13:11:00.351Z,4.83
2018-04-12T13:13:27.956Z,4.03
2018-04-12T13:15:55.485Z,4.30
2018-04-12T13:18:23.030Z,9.63
2018-04-12T13:20:50.589Z,12.47
2018-04-12T13:23:18.102Z,4.37
2018-04-12T13:25:45.652Z,4.23
2018-04-12T13:28:13.169Z,4.33
2018-04-12T13:30:40.698Z,4.50
2018-04-12T13:33:09.062Z,4.30
2018-04-12T13:35:36.539Z,4.50
2018-04-12T13:38:04.820Z,4.50
2018-04-12T13:40:33.138Z,4.90
2018-04-12T13:43:00.643Z,3.93
2018-04-12T13:45:28.325Z,4.37
2018-04-12T13:47:55.831Z,4.67
2018-04-12T13:50:23.380Z,4.60
2018-04-12T13:52:50.934Z,4.87
2018-04-12T13:55:18.498Z,4.80
2018-04-12T13:57:46.086Z,3.77
2018-04-12T14:00:13.614Z,4.80
2018-04-12T14:02:41.167Z,3.43
2018-04-12T14:05:08.716Z,4.90
2018-04-12T14:07:36.298Z,4.70
2018-04-12T14:10:04.308Z,4.23
2018-04-12T14:12:31.854Z,4.37
2018-04-12T14:14:59.364Z,4.63
2018-04-12T14:17:26.923Z,4.40
2018-04-12T14:19:54.435Z,4.23
2018-04-12T14:22:21.966Z,3.93
2018-04-12T14:24:49.483Z,4.10
2018-04-12T14:27:17.089Z,4.27
2018-04-12T14:29:44.653Z,4.23
2018-04-12T14:32:12.148Z,5.10
2018-04-12T14:34:39.705Z,3.87
2018-04-12T14:37:07.209Z,4.00
2018-04-12T14:39:34.751Z,4.27
2018-04-12T14:42:02.258Z,4.27
2018-04-12T14:44:29.852Z,3.77
2018-04-12T14:46:58.133Z,3.93
2018-04-12T14:49:26.501Z,3.80
2018-04-12T14:51:54.013Z,4.80
2018-04-12T14:54:21.577Z,4.10
2018-04-12T14:56:49.098Z,4.40
2018-04-12T14:59:16.644Z,4.40
2018-04-12T15:01:44.984Z,4.47
2018-04-12T15:04:12.520Z,3.97
2018-04-12T15:06:40.093Z,4.03
2018-04-12T15:09:07.636Z,4.83
2018-04-12T15:11:35.173Z,4.87
2018-04-12T15:14:02.736Z,4.40
2018-04-12T15:16:30.272Z,4.17
2018-04-12T15:18:58.567Z,4.40
2018-04-12T15:21:26.120Z,4.70
2018-04-12T15:23:53.632Z,4.60
2018-04-12T15:26:21.171Z,5.07
2018-04-12T15:28:48.681Z,4.47
2018-04-12T15:31:16.236Z,4.57
2018-04-12T15:33:43.759Z,5.10
2018-04-12T15:36:11.295Z,5.10
2018-04-12T15:38:38.815Z,5.30
2018-04-12T15:41:06.371Z,4.73
2018-04-12T15:43:33.878Z,4.13
2018-04-12T15:46:01.899Z,5.10
2018-04-12T15:48:29.458Z,4.30
2018-04-12T15:50:56.980Z,4.33
2018-04-12T15:53:24.548Z,4.50
2018-04-12T15:55:52.098Z,5.27
2018-04-12T15:58:19.636Z,5.13
2018-04-12T16:00:47.160Z,4.97
2018-04-12T16:03:14.722Z,5.35
2018-04-12T16:05:42.219Z,4.73
2018-04-12T16:08:09.756Z,4.47
2018-04-12T16:10:37.268Z,4.90
2018-04-12T16:13:04.819Z,4.83
2018-04-12T16:15:32.369Z,5.10
2018-04-12T16:18:00.036Z,5.57
2018-04-12T16:20:27.612Z,4.43
2018-04-12T16:22:55.202Z,4.97
2018-04-12T16:25:23.573Z,5.00
2018-04-12T16:27:52.020Z,4.33
2018-04-12T16:30:19.708Z,4.90
2018-04-12T16:32:47.429Z,4.60
2018-04-12T16:35:15.028Z,5.07
2018-04-12T16:37:42.728Z,4.23
2018-04-12T16:40:11.144Z,5.17
2018-04-12T16:42:38.824Z,5.47
2018-04-12T16:45:06.518Z,4.20
2018-04-12T16:47:34.134Z,5.30
2018-04-12T16:50:01.821Z,5.10
2018-04-12T16:52:29.611Z,4.57
2018-04-12T16:54:58.157Z,4.63
2018-04-12T16:57:25.972Z,5.43
2018-04-12T16:59:53.790Z,4.77
2018-04-12T17:02:21.389Z,4.03
2018-04-12T17:04:49.032Z,5.47
2018-04-12T17:07:16.644Z,5.47
2018-04-12T17:09:44.345Z,4.70
2018-04-12T17:12:12.036Z,4.67
2018-04-12T17:14:40.447Z,5.30
2018-04-12T17:17:08.227Z,4.97
2018-04-12T17:19:35.925Z,4.63
2018-04-12T17:22:03.713Z,5.23
2018-04-12T17:24:31.391Z,4.60
2018-04-12T17:26:59.103Z,5.53
2018-04-12T17:29:27.487Z,4.97
2018-04-12T17:31:55.189Z,5.17
2018-04-12T17:34:22.780Z,5.17
2018-04-12T17:36:50.745Z,4.33
2018-04-12T17:39:19.676Z,5.43
2018-04-12T17:41:47.559Z,4.53
2018-04-12T17:44:15.373Z,4.90
2018-04-12T17:46:43.035Z,5.07
2018-04-12T17:49:10.627Z,5.30
2018-04-12T17:51:38.182Z,5.20
2018-04-12T17:54:05.772Z,5.67
2018-04-12T17:56:33.380Z,5.27
2018-04-12T17:59:00.975Z,4.83
2018-04-12T18:01:28.541Z,4.00
2018-04-12T18:03:56.147Z,5.33
2018-04-12T18:06:23.709Z,5.13
2018-04-12T18:08:51.304Z,5.23
2018-04-12T18:11:18.904Z,4.70
2018-04-12T18:13:46.508Z,4.90
2018-04-12T18:16:14.079Z,5.07
2018-04-12T18:18:41.671Z,5.10
2018-04-12T18:21:09.252Z,5.20
2018-04-12T18:23:36.831Z,5.17
2018-04-12T18:26:04.384Z,5.53
2018-04-12T18:28:31.923Z,5.80
2018-04-12T18:31:00.286Z,5.40
2018-04-12T18:33:27.835Z,5.20
2018-04-12T18:35:55.461Z,5.33
2018-04-12T18:38:23.833Z,5.77
2018-04-12T18:40:55.180Z,15.13
2018-04-12T18:43:23.785Z,8.93
2018-04-12T18:45:51.428Z,6.83
2018-04-12T18:48:18.969Z,7.13
2018-04-12T18:50:47.542Z,7.37
2018-04-12T18:53:15.153Z,6.60
2018-04-12T18:55:42.694Z,5.10
2018-04-12T18:58:10.310Z,4.80
2018-04-12T19:00:37.903Z,5.47
2018-04-12T19:03:05.594Z,5.33
2018-04-12T19:05:34.725Z,9.30
2018-04-12T19:08:03.070Z,5.93
2018-04-12T19:10:31.446Z,13.67
2018-04-12T19:12:59.888Z,12.27
2018-04-12T19:15:27.468Z,78.47
2018-04-12T19:17:55.898Z,165.67
2018-04-12T19:20:24.287Z,85.23
2018-04-12T19:22:53.677Z,60.90
2018-04-12T19:25:21.278Z,62.23
2018-04-12T19:27:49.695Z,47.10
2018-04-12T19:30:17.265Z,36.63
2018-04-12T19:32:44.908Z,16.07
2018-04-12T19:35:12.572Z,17.37
2018-04-12T19:37:40.188Z,14.10
2018-04-12T19:40:07.817Z,11.43
2018-04-12T19:42:35.409Z,9.87
2018-04-12T19:45:03.810Z,12.07
2018-04-12T19:47:31.432Z,8.73
2018-04-12T19:49:58.991Z,5.63
2018-04-12T19:52:27.385Z,6.70
2018-04-12T19:54:55.027Z,5.97
2018-04-12T19:57:22.653Z,7.17
2018-04-12T19:59:51.146Z,7.37
2018-04-12T20:02:18.751Z,5.10
2018-04-12T20:04:47.170Z,5.57
2018-04-12T20:07:14.765Z,5.57
2018-04-12T20:09:43.593Z,6.10
2018-04-12T20:12:11.134Z,5.23
2018-04-12T20:14:38.721Z,5.90
2018-04-12T20:17:06.317Z,5.37
2018-04-12T20:19:33.957Z,6.07
2018-04-12T20:22:01.495Z,5.20
2018-04-12T20:24:30.065Z,5.00
2018-04-12T20:26:57.774Z,6.97
2018-04-12T20:29:25.376Z,5.53
2018-04-12T20:31:53.001Z,5.80
2018-04-12T20:34:20.668Z,5.00
2018-04-12T20:36:48.268Z,6.00
2018-04-12T20:39:15.856Z,5.10
2018-04-12T20:41:43.413Z,4.67
2018-04-12T20:44:11.047Z,5.70
2018-04-12T20:46:39.406Z,5.23
2018-04-12T20:49:06.954Z,5.13
2018-04-12T20:51:34.523Z,5.30
2018-04-12T20:54:02.138Z,5.37
2018-04-12T20:56:29.700Z,4.53
2018-04-12T20:58:57.284Z,5.80
2018-04-12T21:01:24.868Z,5.43
2018-04-12T21:03:52.406Z,5.77
2018-04-12T21:06:19.980Z,5.23
2018-04-12T21:08:47.538Z,5.30
2018-04-12T21:11:15.896Z,5.43
2018-04-12T21:13:43.446Z,5.70
2018-04-12T21:16:11.027Z,6.90
2018-04-12T21:18:38.566Z,7.30
2018-04-12T21:21:06.166Z,7.20
2018-04-12T21:23:33.709Z,6.80
2018-04-12T21:26:01.268Z,6.97
2018-04-12T21:28:30.664Z,6.53
2018-04-12T21:30:58.189Z,6.83
2018-04-12T21:33:25.786Z,6.53
2018-04-12T21:35:53.295Z,5.67
2018-04-12T21:38:20.888Z,5.03
2018-04-12T21:40:48.443Z,5.10
2018-04-12T21:43:16.022Z,6.63
2018-04-12T21:45:43.568Z,5.63
2018-04-12T21:48:11.130Z,6.10
2018-04-12T21:50:38.648Z,5.47
2018-04-12T21:53:06.997Z,6.93
2018-04-12T21:55:34.526Z,6.63
2018-04-12T21:58:02.115Z,5.67
2018-04-12T22:00:29.686Z,5.57
2018-04-12T22:02:57.237Z,5.97
2018-04-12T22:05:36.363Z,5.47
2018-04-12T22:08:03.877Z,5.70
2018-04-12T22:10:31.484Z,6.30
2018-04-12T22:12:59.019Z,6.27
2018-04-12T22:15:27.383Z,5.57
2018-04-12T22:17:54.898Z,6.20
2018-04-12T22:20:22.469Z,5.77
2018-04-12T22:22:50.761Z,5.80
2018-04-12T22:25:18.353Z,5.97
2018-04-12T22:27:45.900Z,5.17
2018-04-12T22:30:13.495Z,5.47
2018-04-12T22:32:41.034Z,5.67
2018-04-12T22:35:08.608Z,5.40
2018-04-12T22:37:36.143Z,6.73
2018-04-12T22:40:04.160Z,5.70
2018-04-12T22:42:31.696Z,5.27
2018-04-12T22:45:00.010Z,5.53
2018-04-12T22:50:19.117Z,5.63
2018-04-12T22:52:46.633Z,4.57
2018-04-12T22:55:14.143Z,5.47
2018-04-12T22:57:41.687Z,5.37
2018-04-12T23:00:09.834Z,5.13
2018-04-12T23:02:37.419Z,5.03
2018-04-12T23:05:04.955Z,6.30
2018-04-12T23:07:32.540Z,5.03
2018-04-12T23:10:00.076Z,5.97
2018-04-12T23:12:27.641Z,6.60
2018-04-12T23:14:55.954Z,5.93
2018-04-12T23:17:23.522Z,5.87
2018-04-12T23:19:51.068Z,5.00
2018-04-12T23:22:18.669Z,4.80
2018-04-12T23:24:46.269Z,5.40
2018-04-12T23:27:13.851Z,6.17
2018-04-12T23:29:41.385Z,6.17
2018-04-12T23:32:09.001Z,4.97
2018-04-12T23:34:36.587Z,5.53
2018-04-12T23:37:04.200Z,6.20
2018-04-12T23:39:31.744Z,6.53
2018-04-12T23:41:59.325Z,6.00
2018-04-12T23:44:26.911Z,6.10
2018-04-12T23:46:55.244Z,5.90
2018-04-12T23:49:22.853Z,5.87
2018-04-12T23:51:50.407Z,6.30
2018-04-12T23:54:17.973Z,6.10
2018-04-12T23:56:45.528Z,7.37
2018-04-12T23:59:13.167Z,5.87
